Time;durP1;ratioP1;P1;durP2;ratioP2;P2;SDS_P1;SDS_P2;PMS_P1;PMS_P2;Temp;Humidity;BMP_temperature;BMP_pressure;BME280_temperature;BME280_humidity;BME280_pressure;Samples;Min_cycle;Max_cycle;Signal;HPM_P1;HPM_P2
2024/03/01 00:00:04;;;;;;;1.80;1.30;;;;;;;22.03;42.20;99416.16;4444322;28;20032;-52
2024/03/01 00:02:19;;;;;;;1.23;1.00;;;;;;;22.02;41.82;99417.38;4451075;28;20039;-53
2024/03/01 00:04:31;;;;;;;2.25;1.60;;;;;;;22.02;42.25;99416.56;4444326;28;20086;-52
2024/03/01 00:06:41;;;;;;;1.30;1.10;;;;;;;22.02;41.98;99413.72;4445112;28;20047;-56
2024/03/01 00:08:51;;;;;;;1.27;1.17;;;;;;;22.00;42.06;99413.28;4446440;28;20048;-55
2024/03/01 00:11:02;;;;;;;1.63;1.17;;;;;;;22.00;41.83;99417.00;4454883;28;21364;-52
2024/03/01 00:13:12;;;;;;;1.65;1.10;;;;;;;22.00;41.82;99417.00;4445923;28;20451;-52
2024/03/01 00:15:23;;;;;;;2.05;1.10;;;;;;;22.00;42.15;99411.25;4445350;28;20093;-52
2024/03/01 00:17:33;;;;;;;1.60;1.13;;;;;;;22.02;42.20;99407.97;4446780;28;20035;-51
2024/03/01 00:19:43;;;;;;;2.17;1.15;;;;;;;22.02;41.72;99411.63;4445917;28;20591;-51
2024/03/01 00:21:54;;;;;;;1.42;1.23;;;;;;;22.08;41.95;99409.19;4445626;28;20043;-56
2024/03/01 00:24:07;;;;;;;1.92;1.02;;;;;;;22.14;41.56;99411.28;4445445;28;20937;-54
2024/03/01 00:26:18;;;;;;;1.63;1.20;;;;;;;22.07;41.56;99411.25;4446718;28;20048;-51
2024/03/01 00:28:28;;;;;;;1.30;1.10;;;;;;;22.03;41.72;99403.84;4446474;28;20023;-56
2024/03/01 00:30:38;;;;;;;1.95;1.20;;;;;;;22.04;41.79;99396.88;4447014;28;20811;-55
2024/03/01 00:32:49;;;;;;;2.10;1.20;;;;;;;21.99;41.79;99403.81;4446663;28;20127;-53
2024/03/01 00:34:59;;;;;;;1.52;1.10;;;;;;;21.98;42.18;99399.31;4445305;28;20068;-55
2024/03/01 00:37:10;;;;;;;1.67;1.20;;;;;;;21.96;42.01;99400.97;4444649;28;20039;-52
2024/03/01 00:39:20;;;;;;;2.63;1.20;;;;;;;21.95;42.09;99400.13;4445598;28;20151;-52
2024/03/01 00:41:31;;;;;;;1.13;1.00;;;;;;;21.96;42.28;99398.91;4446253;28;20083;-52
2024/03/01 00:43:41;;;;;;;1.65;1.48;;;;;;;21.97;41.78;99403.44;4446041;28;20656;-51
2024/03/01 00:45:51;;;;;;;1.40;1.00;;;;;;;21.97;42.16;99406.31;4444736;28;20066;-52
2024/03/01 00:48:08;;;;;;;1.75;1.40;;;;;;;21.95;42.00;99396.44;4446759;28;20518;-52
2024/03/01 00:50:22;;;;;;;1.50;1.30;;;;;;;21.98;41.85;99396.44;4446526;28;20035;-56
2024/03/01 00:52:32;;;;;;;1.60;1.10;;;;;;;21.98;42.14;99401.34;4445134;28;20059;-51
2024/03/01 00:54:43;;;;;;;1.63;1.10;;;;;;;21.94;41.87;99395.63;4445584;28;20118;-52
2024/03/01 00:56:54;;;;;;;2.08;1.10;;;;;;;21.94;42.22;99398.50;4436372;28;20040;-51
2024/03/01 00:59:04;;;;;;;1.50;1.23;;;;;;;21.94;42.25;99397.66;4445248;28;20081;-53
2024/03/01 01:01:15;;;;;;;1.40;1.10;;;;;;;21.92;41.98;99398.06;4445128;28;20123;-53
2024/03/01 01:03:25;;;;;;;1.88;1.35;;;;;;;21.95;42.12;99403.00;4445130;28;21012;-51
2024/03/01 01:05:35;;;;;;;1.30;1.17;;;;;;;21.99;42.13;99398.09;4446177;28;20044;-52
2024/03/01 01:07:46;;;;;;;1.70;1.30;;;;;;;22.04;42.10;99391.94;4444580;28;20050;-51
2024/03/01 01:09:56;;;;;;;2.65;1.10;;;;;;;22.02;41.84;99384.97;4444131;28;20079;-53
2024/03/01 01:12:07;;;;;;;2.15;1.30;;;;;;;22.00;41.71;99381.69;4445881;28;20468;-53
2024/03/01 01:14:17;;;;;;;1.65;1.30;;;;;;;22.01;41.99;99377.56;4445115;28;20040;-51
2024/03/01 01:16:28;;;;;;;1.10;1.00;;;;;;;21.96;41.69;99372.25;4448661;28;20098;-50
2024/03/01 01:18:38;;;;;;;1.40;1.23;;;;;;;21.93;41.98;99365.22;4447570;28;20498;-54
2024/03/01 01:20:49;;;;;;;1.77;1.40;;;;;;;21.94;41.73;99369.78;4446583;28;20054;-54
2024/03/01 01:23:00;;;;;;;1.50;1.27;;;;;;;21.99;41.75;99369.34;4427673;28;20127;-54
2024/03/01 01:25:10;;;;;;;1.40;1.23;;;;;;;21.98;42.13;99366.88;4444977;28;20031;-53
2024/03/01 01:27:20;;;;;;;1.48;1.20;;;;;;;21.95;42.08;99365.66;4445691;28;20078;-55
2024/03/01 01:29:31;;;;;;;1.48;1.23;;;;;;;21.97;42.10;99360.34;4445582;28;20486;-52
2024/03/01 01:31:41;;;;;;;1.50;1.00;;;;;;;21.98;41.86;99343.91;4446001;28;20027;-51
2024/03/01 01:33:52;;;;;;;1.23;1.10;;;;;;;21.98;42.10;99347.59;4430024;28;20158;-56
2024/03/01 01:36:02;;;;;;;2.13;1.20;;;;;;;21.97;41.68;99340.22;4446996;28;20028;-55
2024/03/01 01:38:13;;;;;;;1.45;1.20;;;;;;;21.95;41.92;99339.81;4445157;28;20123;-51
2024/03/01 01:40:26;;;;;;;2.03;1.63;;;;;;;21.94;41.71;99343.09;4446046;28;20063;-55
2024/03/01 01:42:37;;;;;;;2.17;1.33;;;;;;;21.94;41.78;99343.91;4444588;28;20135;-55
2024/03/01 01:44:47;;;;;;;1.55;1.00;;;;;;;21.93;41.78;99344.28;4444864;28;20486;-51
2024/03/01 01:46:57;;;;;;;2.70;1.10;;;;;;;21.93;41.79;99348.00;4445135;28;20039;-54
2024/03/01 01:49:08;;;;;;;2.17;1.20;;;;;;;21.93;42.11;99348.00;4444412;28;20074;-56
2024/03/01 01:51:20;;;;;;;1.50;1.10;;;;;;;21.94;41.94;99335.28;4444328;28;20496;-52
2024/03/01 01:53:32;;;;;;;1.85;1.20;;;;;;;21.92;42.17;99340.63;4445960;28;20034;-53
2024/03/01 01:55:43;;;;;;;2.00;1.30;;;;;;;21.93;41.86;99341.41;4445416;28;20040;-52
2024/03/01 01:57:54;;;;;;;2.05;1.40;;;;;;;21.94;42.09;99340.22;4446825;28;20039;-52
2024/03/01 02:00:07;;;;;;;1.67;1.30;;;;;;;21.95;42.01;99341.84;4444254;28;20851;-52
2024/03/01 02:02:23;;;;;;;1.80;1.30;;;;;;;21.97;41.71;99337.34;4440931;28;20162;-53
2024/03/01 02:04:33;;;;;;;1.60;1.15;;;;;;;22.00;41.77;99335.69;4444050;28;20032;-55
2024/03/01 02:06:44;;;;;;;1.77;1.23;;;;;;;21.98;41.89;99338.97;4444760;28;20028;-53
2024/03/01 02:08:56;;;;;;;1.42;1.30;;;;;;;22.00;41.55;99330.78;4443950;28;20035;-52
2024/03/01 02:11:07;;;;;;;1.42;1.20;;;;;;;21.94;41.82;99320.94;4446060;28;20706;-52
2024/03/01 02:13:18;;;;;;;2.05;1.10;;;;;;;21.90;42.03;99317.22;4444364;28;20043;-53
2024/03/01 02:15:29;;;;;;;1.92;1.10;;;;;;;21.93;42.01;99304.91;4444253;28;20031;-53
2024/03/01 02:17:40;;;;;;;1.65;1.13;;;;;;;21.94;41.82;99308.59;4445214;28;20024;-53
2024/03/01 02:19:50;;;;;;;2.22;1.25;;;;;;;21.92;42.13;99306.16;4444781;28;20866;-56
2024/03/01 02:22:11;;;;;;;1.58;1.10;;;;;;;21.98;41.74;99298.75;4445072;28;20115;-52
2024/03/01 02:24:23;;;;;;;1.95;1.30;;;;;;;22.00;41.41;99302.06;4444358;28;20098;-54
2024/03/01 02:26:33;;;;;;;1.73;1.10;;;;;;;21.94;41.92;99300.81;4445948;28;20035;-54
2024/03/01 02:28:45;;;;;;;1.70;1.17;;;;;;;21.96;41.57;99291.78;4445176;28;20039;-56
2024/03/01 02:30:55;;;;;;;1.20;1.10;;;;;;;21.97;41.63;99296.28;4443292;28;20042;-52
2024/03/01 02:33:05;;;;;;;1.70;1.00;;;;;;;21.93;41.95;99290.53;4436332;28;20030;-54
2024/03/01 02:35:16;;;;;;;1.55;1.13;;;;;;;21.97;41.73;99284.81;4445136;28;20040;-56
2024/03/01 02:37:26;;;;;;;2.30;1.27;;;;;;;21.96;41.72;99289.72;4444300;28;20036;-52
2024/03/01 02:39:37;;;;;;;1.38;1.13;;;;;;;21.92;41.86;99277.41;4445399;28;20043;-54
2024/03/01 02:41:48;;;;;;;2.72;1.20;;;;;;;21.95;41.91;99276.59;4444285;28;20541;-52
2024/03/01 02:43:58;;;;;;;1.27;1.17;;;;;;;22.00;41.88;99283.97;4445573;28;20490;-53
2024/03/01 02:46:08;;;;;;;2.00;1.13;;;;;;;22.00;41.51;99276.19;4445197;28;20483;-52
2024/03/01 02:48:19;;;;;;;1.98;1.30;;;;;;;21.95;42.02;99275.75;4444966;28;20511;-55
2024/03/01 02:50:29;;;;;;;1.35;1.20;;;;;;;21.93;41.85;99276.19;4443300;28;20122;-56
2024/03/01 02:52:40;;;;;;;1.75;1.20;;;;;;;21.88;42.13;99262.22;4443853;28;20043;-55
2024/03/01 02:54:51;;;;;;;1.52;1.02;;;;;;;21.87;41.86;99280.69;4443405;28;20503;-56
2024/03/01 02:57:01;;;;;;;1.85;1.00;;;;;;;21.93;41.87;99279.03;4443976;28;20506;-55
2024/03/01 02:59:11;;;;;;;2.40;1.23;;;;;;;21.97;41.90;99274.16;4445151;28;20082;-53
2024/03/01 03:01:23;;;;;;;2.03;1.10;;;;;;;21.95;41.87;99276.59;4443602;28;20114;-54
2024/03/01 03:03:33;;;;;;;1.50;1.10;;;;;;;21.90;41.82;99271.25;4442392;28;20055;-55
2024/03/01 03:05:44;;;;;;;1.30;1.10;;;;;;;21.88;41.66;99264.28;4430089;28;20059;-55
2024/03/01 03:07:54;;;;;;;1.20;1.10;;;;;;;21.86;42.05;99258.94;4443324;28;20094;-52
2024/03/01 03:10:06;;;;;;;2.47;1.30;;;;;;;21.88;41.99;99264.28;4443713;28;20039;-56
2024/03/01 03:12:16;;;;;;;2.47;1.10;;;;;;;21.88;42.05;99259.34;4442792;28;20564;-56
2024/03/01 03:14:27;;;;;;;1.75;1.40;;;;;;;21.89;41.84;99261.00;4443000;28;20040;-56
2024/03/01 03:16:37;;;;;;;1.80;1.42;;;;;;;21.92;41.94;99253.59;4445216;28;20039;-53
2024/03/01 03:18:48;;;;;;;1.33;1.20;;;;;;;21.95;41.71;99261.41;4444889;28;20068;-57
2024/03/01 03:20:58;;;;;;;1.70;1.30;;;;;;;21.94;41.61;99266.34;4443298;28;20051;-56
2024/03/01 03:23:09;;;;;;;2.00;1.40;;;;;;;21.87;41.65;99263.44;4428254;28;20036;-55
2024/03/01 03:25:19;;;;;;;1.30;1.20;;;;;;;21.90;41.79;99262.63;4443507;28;20043;-53
2024/03/01 03:27:29;;;;;;;1.25;1.05;;;;;;;21.88;41.54;99270.81;4444077;28;20071;-54
2024/03/01 03:29:40;;;;;;;1.05;0.95;;;;;;;21.86;42.11;99275.34;4435894;28;20090;-53
2024/03/01 03:31:51;;;;;;;1.60;1.40;;;;;;;21.87;41.82;99271.22;4442812;28;20046;-55
2024/03/01 03:34:01;;;;;;;1.58;1.20;;;;;;;21.94;41.71;99266.34;4443045;28;20040;-56
2024/03/01 03:36:11;;;;;;;2.08;1.17;;;;;;;21.93;41.80;99266.72;4443902;28;20540;-52
2024/03/01 03:38:22;;;;;;;1.98;1.30;;;;;;;21.94;41.48;99265.50;4443337;28;20044;-54
2024/03/01 03:40:33;;;;;;;2.13;1.15;;;;;;;21.94;41.59;99263.47;4443727;28;20043;-55
2024/03/01 03:42:43;;;;;;;2.03;1.38;;;;;;;21.91;41.83;99257.72;4437593;28;20043;-53
2024/03/01 03:44:54;;;;;;;1.50;1.13;;;;;;;21.94;41.79;99259.78;4446228;28;20199;-54
2024/03/01 03:47:04;;;;;;;1.40;1.20;;;;;;;21.94;41.61;99251.16;4446855;28;25097;-54
2024/03/01 03:49:15;;;;;;;1.30;1.10;;;;;;;21.90;41.90;99261.81;4439282;28;20046;-53
2024/03/01 03:51:27;;;;;;;1.98;1.02;;;;;;;21.86;42.00;99258.13;4446590;28;20043;-55
2024/03/01 03:53:37;;;;;;;6.03;1.40;;;;;;;21.84;42.04;99261.41;4445847;28;20024;-52
2024/03/01 03:55:48;;;;;;;1.30;1.17;;;;;;;21.86;41.70;99253.19;4446729;28;20036;-55
2024/03/01 03:57:58;;;;;;;1.55;1.20;;;;;;;21.87;41.89;99254.84;4445547;28;20189;-56
2024/03/01 04:00:09;;;;;;;1.75;1.38;;;;;;;21.86;41.76;99258.13;4433549;28;20134;-55
2024/03/01 04:02:20;;;;;;;2.13;1.20;;;;;;;21.92;41.56;99260.19;4433938;28;20032;-53
2024/03/01 04:04:30;;;;;;;1.33;1.10;;;;;;;21.95;41.30;99265.09;4446805;28;20497;-53
2024/03/01 04:06:41;;;;;;;1.88;1.33;;;;;;;21.92;41.44;99262.22;4445546;28;20051;-55
2024/03/01 04:08:51;;;;;;;1.88;1.25;;;;;;;21.91;41.39;99263.47;4446565;28;20027;-53
2024/03/01 04:11:05;;;;;;;2.67;1.38;;;;;;;21.85;41.72;99257.28;4448307;28;20039;-53
2024/03/01 04:13:15;;;;;;;1.50;1.40;;;;;;;21.85;41.67;99257.28;4446254;28;20043;-53
2024/03/01 04:15:26;;;;;;;1.90;1.20;;;;;;;21.87;42.01;99257.69;4446185;28;20027;-53
2024/03/01 04:17:37;;;;;;;3.10;1.30;;;;;;;21.89;41.56;99249.50;4445077;28;20043;-56
2024/03/01 04:19:47;;;;;;;1.38;1.10;;;;;;;21.89;41.82;99252.38;4446609;28;20796;-54
2024/03/01 04:21:57;;;;;;;1.60;1.20;;;;;;;21.86;41.76;99250.31;4446540;28;20131;-53
2024/03/01 04:24:08;;;;;;;1.30;1.20;;;;;;;21.82;41.65;99260.97;4445218;28;20035;-56
2024/03/01 04:26:19;;;;;;;1.75;1.30;;;;;;;21.83;41.75;99261.81;4448032;28;20031;-53
2024/03/01 04:28:29;;;;;;;1.60;1.10;;;;;;;21.86;41.44;99269.59;4445628;28;20034;-52
2024/03/01 04:30:40;;;;;;;1.73;1.30;;;;;;;21.82;41.72;99260.16;4445662;28;20046;-52
2024/03/01 04:32:50;;;;;;;1.48;1.00;;;;;;;21.82;41.66;99268.75;4445164;28;20039;-53
2024/03/01 04:35:01;;;;;;;1.42;1.13;;;;;;;21.83;41.56;99267.56;4446366;28;23348;-52
2024/03/01 04:37:15;;;;;;;1.73;1.40;;;;;;;21.82;41.69;99266.72;4446584;28;20031;-53
2024/03/01 04:39:25;;;;;;;1.40;1.30;;;;;;;21.82;41.95;99269.59;4445693;28;20138;-55
2024/03/01 04:41:36;;;;;;;1.40;1.30;;;;;;;21.85;41.49;99265.09;4437493;28;20506;-55
2024/03/01 04:43:46;;;;;;;2.08;1.40;;;;;;;21.83;41.73;99264.69;4445468;28;20506;-53
2024/03/01 04:45:57;;;;;;;1.85;1.20;;;;;;;21.80;41.89;99272.03;4444868;28;20043;-53
2024/03/01 04:48:08;;;;;;;1.38;1.10;;;;;;;21.80;41.58;99272.03;4445857;28;20040;-52
2024/03/01 04:50:19;;;;;;;2.83;1.40;;;;;;;21.80;41.97;99263.44;4445320;28;20183;-52
2024/03/01 04:52:30;;;;;;;1.20;1.10;;;;;;;21.82;41.58;99265.88;4438124;28;20044;-53
2024/03/01 04:54:40;;;;;;;1.23;1.13;;;;;;;21.85;41.86;99271.66;4447377;28;20032;-56
2024/03/01 04:56:50;;;;;;;1.33;1.10;;;;;;;21.90;41.76;99267.53;4445413;28;20048;-56
2024/03/01 04:59:01;;;;;;;1.55;1.17;;;;;;;21.85;41.53;99263.03;4446403;28;20387;-52
2024/03/01 05:01:11;;;;;;;1.10;1.00;;;;;;;21.84;41.60;99269.19;4438071;28;20048;-55
2024/03/01 05:03:22;;;;;;;2.13;1.27;;;;;;;21.79;41.70;99256.03;4445346;28;20581;-55
2024/03/01 05:05:33;;;;;;;1.63;1.23;;;;;;;21.83;41.87;99262.63;4444767;28;26700;-53
2024/03/01 05:07:47;;;;;;;1.85;1.13;;;;;;;21.85;41.75;99267.97;4445292;28;20833;-54
2024/03/01 05:09:58;;;;;;;1.33;1.20;;;;;;;21.88;41.49;99259.34;4445131;28;20895;-54
2024/03/01 05:12:13;;;;;;;1.58;1.20;;;;;;;21.86;41.90;99270.44;4445011;28;20131;-53
2024/03/01 05:14:23;;;;;;;1.27;1.00;;;;;;;21.84;41.99;99270.00;4446582;28;20119;-55
2024/03/01 05:16:34;;;;;;;1.25;1.13;;;;;;;21.81;41.95;99270.84;4445618;28;20042;-52
2024/03/01 05:18:45;;;;;;;2.20;1.20;;;;;;;21.82;41.74;99272.47;4445072;28;20870;-55
2024/03/01 05:20:55;;;;;;;1.52;1.25;;;;;;;21.83;41.55;99265.50;4444049;28;20106;-53
2024/03/01 05:23:06;;;;;;;1.65;1.20;;;;;;;21.88;41.52;99270.81;4445892;28;20031;-52
2024/03/01 05:25:16;;;;;;;1.73;1.10;;;;;;;21.88;41.54;99270.03;4445016;28;20031;-53
2024/03/01 05:27:27;;;;;;;1.70;1.23;;;;;;;21.82;41.92;99272.47;4445152;28;20051;-56
2024/03/01 05:29:37;;;;;;;1.30;1.05;;;;;;;21.80;41.88;99274.91;4444748;28;20028;-56
2024/03/01 05:31:48;;;;;;;1.50;1.10;;;;;;;21.82;41.55;99271.63;4444651;28;20547;-53
2024/03/01 05:33:58;;;;;;;1.50;1.20;;;;;;;21.90;41.73;99264.66;4442898;28;20031;-56
2024/03/01 05:36:10;;;;;;;1.35;1.10;;;;;;;21.88;41.38;99270.03;4437523;28;23921;-53
2024/03/01 05:38:21;;;;;;;1.70;1.13;;;;;;;21.83;41.96;99274.13;4445583;28;20083;-56
2024/03/01 05:40:31;;;;;;;2.47;1.38;;;;;;;21.80;41.60;99272.03;4445656;28;20122;-55
2024/03/01 05:42:43;;;;;;;1.50;1.23;;;;;;;21.74;42.12;99273.66;4445354;28;20102;-52
2024/03/01 05:44:53;;;;;;;2.72;1.20;;;;;;;21.80;41.54;99277.00;4444381;28;20123;-52
2024/03/01 05:47:04;;;;;;;2.67;1.25;;;;;;;21.83;41.57;99277.00;4443392;28;20122;-54
2024/03/01 05:49:14;;;;;;;1.60;1.33;;;;;;;21.85;41.75;99274.53;4445367;28;20065;-56
2024/03/01 05:51:24;;;;;;;1.83;1.40;;;;;;;21.80;41.80;99280.66;4444640;28;20115;-56
2024/03/01 05:53:35;;;;;;;3.08;2.30;;;;;;;21.58;34.19;99278.94;4445676;28;20036;-54
2024/03/01 05:55:45;;;;;;;5.78;4.22;;;;;;;21.42;29.56;99281.34;4443531;28;20949;-52
2024/03/01 05:57:56;;;;;;;5.45;3.90;;;;;;;21.33;29.69;99271.47;4444720;28;20409;-53
2024/03/01 06:00:17;;;;;;;5.30;3.65;;;;;;;21.26;29.75;99278.03;4444487;28;20421;-52
2024/03/01 06:02:28;;;;;;;4.70;3.63;;;;;;;21.20;30.68;99273.88;4445416;28;20054;-55
2024/03/01 06:04:39;;;;;;;4.55;3.40;;;;;;;21.16;30.70;99278.78;4437270;28;20038;-56
2024/03/01 06:06:50;;;;;;;5.03;3.60;;;;;;;21.13;30.76;99279.59;4443942;28;20035;-52
2024/03/01 06:09:00;;;;;;;4.57;3.30;;;;;;;21.11;31.21;99276.28;4445314;28;20023;-52
2024/03/01 06:11:11;;;;;;;3.97;3.22;;;;;;;21.09;31.36;99284.47;4445676;28;20047;-53
2024/03/01 06:13:21;;;;;;;4.55;3.28;;;;;;;21.06;31.26;99279.53;4443623;28;20035;-56
2024/03/01 06:15:31;;;;;;;4.13;3.10;;;;;;;21.05;31.42;99277.91;4444802;28;20417;-52
2024/03/01 06:17:42;;;;;;;4.63;3.13;;;;;;;21.05;31.60;99286.50;4445204;28;20039;-52
2024/03/01 06:19:53;;;;;;;4.55;2.80;;;;;;;21.03;31.87;99286.09;4433568;28;20056;-56
2024/03/01 06:22:04;;;;;;;4.65;3.38;;;;;;;21.01;32.09;99282.78;4429543;28;20032;-57
2024/03/01 06:24:14;;;;;;;3.22;2.63;;;;;;;21.00;32.03;99291.78;4444649;28;20522;-55
2024/03/01 06:26:25;;;;;;;3.90;2.80;;;;;;;21.00;31.98;99295.50;4443683;28;20039;-57
2024/03/01 06:28:35;;;;;;;3.95;2.80;;;;;;;21.00;32.28;99300.41;4444078;28;20023;-56
2024/03/01 06:30:45;;;;;;;3.50;2.60;;;;;;;20.99;32.50;99291.00;4445071;28;20039;-55
2024/03/01 06:32:57;;;;;;;3.88;2.92;;;;;;;20.96;32.45;99294.66;4444144;28;20091;-53
2024/03/01 06:35:08;;;;;;;3.85;2.85;;;;;;;20.97;32.34;99293.44;4445293;28;20037;-56
2024/03/01 06:37:19;;;;;;;4.22;2.65;;;;;;;20.97;32.42;99299.16;4444928;28;20027;-56
2024/03/01 06:39:30;;;;;;;3.63;2.72;;;;;;;20.97;32.79;99304.06;4442970;28;20040;-57
2024/03/01 06:41:40;;;;;;;3.58;2.55;;;;;;;20.96;32.60;99303.28;4443084;28;20032;-56
2024/03/01 06:43:51;;;;;;;2.95;2.22;;;;;;;20.96;32.68;99308.16;4444154;28;20119;-57
2024/03/01 06:46:06;;;;;;;3.17;2.47;;;;;;;20.96;32.43;99311.88;4421464;28;20132;-56
2024/03/01 06:48:17;;;;;;;3.38;2.45;;;;;;;20.97;32.45;99318.41;4440507;28;20036;-57
2024/03/01 06:50:27;;;;;;;3.13;2.40;;;;;;;20.95;33.01;99318.78;4445765;28;20521;-57
2024/03/01 06:52:37;;;;;;;3.75;2.70;;;;;;;20.93;32.91;99315.50;4444007;28;20474;-55
2024/03/01 06:54:48;;;;;;;3.10;2.40;;;;;;;20.93;32.71;99321.22;4444914;28;20468;-54
2024/03/01 06:56:59;;;;;;;3.33;2.40;;;;;;;20.94;32.78;99330.66;4445401;28;20027;-57
2024/03/01 06:59:09;;;;;;;3.38;2.50;;;;;;;20.93;33.18;99321.22;4432945;28;20040;-57
2024/03/01 07:01:20;;;;;;;2.92;2.40;;;;;;;20.93;33.18;99321.22;4431768;28;20051;-56
2024/03/01 07:03:31;;;;;;;3.83;2.50;;;;;;;20.93;33.15;99321.22;4443538;28;20043;-57
2024/03/01 07:05:41;;;;;;;3.25;2.63;;;;;;;20.92;32.81;99322.47;4441060;28;20023;-57
2024/03/01 07:07:52;;;;;;;3.58;2.42;;;;;;;20.92;32.80;99319.59;4442880;28;20035;-56
2024/03/01 07:10:03;;;;;;;2.92;2.28;;;;;;;20.93;32.86;99332.69;4444145;28;25029;-56
2024/03/01 07:12:13;;;;;;;3.15;2.30;;;;;;;20.93;32.96;99329.84;4443664;28;20031;-56
2024/03/01 07:14:24;;;;;;;2.85;2.35;;;;;;;20.93;33.18;99320.44;4430810;28;20047;-52
2024/03/01 07:16:34;;;;;;;3.53;2.40;;;;;;;20.94;32.94;99317.16;4434731;28;20071;-56
2024/03/01 07:18:45;;;;;;;3.05;2.30;;;;;;;20.94;33.07;99322.06;4443180;28;20040;-55
2024/03/01 07:20:55;;;;;;;3.03;2.20;;;;;;;20.94;33.23;99325.75;4445515;28;20429;-55
2024/03/01 07:23:05;;;;;;;3.10;2.50;;;;;;;20.94;33.29;99331.50;4446352;28;20118;-52
2024/03/01 07:25:17;;;;;;;3.15;2.50;;;;;;;20.94;33.12;99328.63;4446858;28;20031;-56
2024/03/01 07:27:29;;;;;;;2.90;2.30;;;;;;;20.94;33.15;99327.78;4445017;28;20063;-52
2024/03/01 07:29:39;;;;;;;3.28;2.30;;;;;;;20.94;33.07;99334.38;4438676;28;20040;-54
2024/03/01 07:31:49;;;;;;;3.08;2.40;;;;;;;20.94;33.16;99333.53;4447294;28;20039;-57
2024/03/01 07:34:00;;;;;;;3.03;2.50;;;;;;;20.93;33.18;99332.69;4445551;28;20046;-53
2024/03/01 07:36:12;;;;;;;3.40;2.17;;;;;;;20.93;33.55;99335.56;4439597;28;20509;-54
2024/03/01 07:38:22;;;;;;;3.33;2.50;;;;;;;20.92;33.38;99336.81;4438803;28;20114;-55
2024/03/01 07:40:33;;;;;;;2.78;2.10;;;;;;;20.92;33.18;99328.19;4419905;28;28029;-57
2024/03/01 07:42:43;;;;;;;2.92;2.20;;;;;;;20.93;33.48;99329.03;4434602;28;20035;-54
2024/03/01 07:44:55;;;;;;;2.88;2.20;;;;;;;20.93;33.51;99332.69;4432611;28;20119;-54
2024/03/01 07:47:06;;;;;;;3.28;2.40;;;;;;;20.93;33.74;99320.44;4445867;28;20055;-57
2024/03/01 07:49:16;;;;;;;3.25;2.40;;;;;;;20.93;33.54;99332.69;4439074;28;20046;-56
2024/03/01 07:51:26;;;;;;;4.43;2.47;;;;;;;20.94;33.40;99324.94;4433264;28;20071;-52
2024/03/01 07:53:39;;;;;;;3.90;2.80;;;;;;;20.94;33.48;99325.75;4436319;28;22126;-53
2024/03/01 07:55:49;;;;;;;3.53;2.47;;;;;;;20.93;33.40;99326.97;4440539;28;20114;-52
2024/03/01 07:57:59;;;;;;;4.57;2.92;;;;;;;20.93;33.32;99315.50;4446160;28;20171;-52
2024/03/01 08:00:11;;;;;;;3.35;2.47;;;;;;;20.93;33.27;99318.34;4446593;28;20047;-54
2024/03/01 08:02:22;;;;;;;3.67;2.50;;;;;;;20.95;33.37;99324.53;4445588;28;20031;-57
2024/03/01 08:04:34;;;;;;;3.13;2.40;;;;;;;20.93;33.42;99321.22;4431402;28;20032;-53
2024/03/01 08:06:44;;;;;;;3.10;2.50;;;;;;;20.94;33.58;99325.75;4446529;28;20131;-56
2024/03/01 08:08:55;;;;;;;3.80;2.83;;;;;;;20.93;33.17;99338.44;4446790;28;20071;-56
2024/03/01 08:11:09;;;;;;;3.35;2.55;;;;;;;20.93;33.68;99335.56;4445526;28;20059;-54
2024/03/01 08:13:20;;;;;;;3.42;2.58;;;;;;;20.94;33.66;99340.09;4445649;28;20032;-53
2024/03/01 08:15:35;;;;;;;3.63;2.30;;;;;;;20.94;33.51;99342.97;4445428;28;20045;-55
2024/03/01 08:17:45;;;;;;;3.33;2.53;;;;;;;20.94;33.75;99345.00;4433795;28;20054;-56
2024/03/01 08:19:56;;;;;;;3.70;2.60;;;;;;;20.94;33.54;99342.97;4435228;28;20054;-53
2024/03/01 08:22:15;;;;;;;2.95;2.40;;;;;;;20.94;33.94;99345.84;4441310;28;20169;-55
2024/03/01 08:24:26;;;;;;;3.33;2.50;;;;;;;20.96;33.78;99345.44;4421000;28;20098;-52
2024/03/01 08:26:36;;;;;;;3.78;2.60;;;;;;;20.96;34.02;99348.31;4447447;28;20489;-56
2024/03/01 08:28:47;;;;;;;3.38;2.25;;;;;;;20.95;34.08;99344.59;4446524;28;20474;-54
2024/03/01 08:31:03;;;;;;;4.45;2.40;;;;;;;20.95;34.02;99341.75;4445160;28;20046;-56
2024/03/01 08:33:18;;;;;;;3.03;2.28;;;;;;;20.97;34.01;99349.97;4444066;28;21679;-55
2024/03/01 08:48:16;;;;;;;2.45;2.10;;;;;;;21.04;33.88;99362.31;5383787;23;20026;-50
2024/03/01 08:50:41;;;;;;;3.05;1.95;;;;;;;21.04;34.00;99364.38;4436129;28;20075;-47
2024/03/01 08:52:52;;;;;;;3.10;1.90;;;;;;;21.00;34.07;99358.59;4440643;28;20737;-50
2024/03/01 08:55:09;;;;;;;2.47;1.77;;;;;;;21.05;33.92;99360.28;4435860;28;20577;-49
2024/03/01 08:57:26;;;;;;;1.90;1.60;;;;;;;21.02;34.06;99359.03;4442924;28;20039;-48
2024/03/01 08:59:44;;;;;;;2.20;1.80;;;;;;;21.04;34.30;99368.03;4435861;28;20051;-47
2024/03/01 09:01:55;;;;;;;2.08;1.77;;;;;;;21.01;34.34;99368.03;4419798;28;20055;-49
2024/03/01 09:04:28;;;;;;;2.63;1.92;;;;;;;21.06;34.27;99376.28;4442178;28;20081;-46
2024/03/01 09:06:40;;;;;;;2.15;1.52;;;;;;;21.02;33.97;99382.00;4442086;28;20903;-47
2024/03/01 09:20:57;;;;;;;1.52;1.33;;;;;;;21.06;34.27;99382.81;4470717;23;20191;-56
2024/03/01 09:23:13;;;;;;;2.20;1.50;;;;;;;21.08;34.22;99383.25;4455844;28;20489;-56
2024/03/01 09:25:49;;;;;;;2.20;1.77;;;;;;;21.09;34.22;99396.38;4456766;28;20042;-52
2024/03/01 09:27:59;;;;;;;2.13;1.67;;;;;;;21.10;34.52;99388.59;4454706;28;20824;-56
2024/03/01 09:30:14;;;;;;;2.28;1.80;;;;;;;21.10;34.08;99392.28;4439627;28;20036;-56
2024/03/01 09:32:25;;;;;;;2.10;1.60;;;;;;;21.10;34.49;99400.91;4456860;28;20067;-56
2024/03/01 09:34:37;;;;;;;1.90;1.60;;;;;;;21.09;34.40;99393.50;4456402;28;20064;-57
2024/03/01 09:36:51;;;;;;;2.25;1.70;;;;;;;21.10;34.35;99386.56;4429713;28;20067;-53
2024/03/01 09:39:06;;;;;;;2.45;1.85;;;;;;;21.12;34.57;99383.28;4455268;28;20032;-56
2024/03/01 09:41:27;;;;;;;2.08;1.55;;;;;;;21.12;34.54;99394.75;4457307;28;20034;-55
2024/03/01 09:43:50;;;;;;;2.55;1.70;;;;;;;21.11;34.26;99388.19;4455014;28;20043;-55
2024/03/01 09:46:24;;;;;;;1.77;1.50;;;;;;;21.12;34.55;99386.94;4456965;28;20031;-56
2024/03/01 09:49:18;;;;;;;2.30;1.50;;;;;;;21.13;34.70;99388.63;4443299;28;20046;-57
2024/03/01 09:51:37;;;;;;;2.00;1.70;;;;;;;21.13;34.71;99387.78;4428485;28;20123;-54
2024/03/01 09:54:21;;;;;;;2.10;1.60;;;;;;;21.14;34.40;99398.03;4454761;28;20042;-59
2024/03/01 09:56:55;;;;;;;1.88;1.67;;;;;;;21.15;34.76;99393.97;4457050;28;20046;-56
2024/03/01 09:59:39;;;;;;;2.30;1.90;;;;;;;21.15;34.66;99400.53;4448923;28;20051;-55
2024/03/01 10:02:01;;;;;;;2.25;1.80;;;;;;;21.16;34.38;99398.47;4456650;28;20047;-56
2024/03/01 10:04:15;;;;;;;1.98;1.60;;;;;;;21.15;34.57;99397.66;4457771;28;20041;-57
2024/03/01 10:06:37;;;;;;;1.90;1.50;;;;;;;21.17;34.62;99400.13;4421416;28;20032;-57
2024/03/01 10:09:12;;;;;;;2.15;1.80;;;;;;;21.16;34.58;99399.28;4455098;28;20055;-56
2024/03/01 10:12:19;;;;;;;2.38;1.77;;;;;;;21.16;34.38;99393.56;4452063;28;20110;-55
2024/03/01 10:14:55;;;;;;;2.00;1.65;;;;;;;21.17;34.41;99389.44;4369758;29;20049;-56
2024/03/01 10:17:37;;;;;;;3.55;1.75;;;;;;;21.18;34.63;99402.59;4371648;29;20048;-56
2024/03/01 10:20:11;;;;;;;2.28;1.77;;;;;;;21.16;34.23;99387.81;4432108;28;20091;-57
2024/03/01 10:22:44;;;;;;;2.25;2.00;;;;;;;21.16;34.33;99393.56;4455408;28;20041;-57
2024/03/01 10:25:17;;;;;;;2.33;1.80;;;;;;;21.17;34.64;99391.53;4455814;28;20039;-57
2024/03/01 10:27:33;;;;;;;1.85;1.50;;;;;;;21.17;34.12;99389.44;4455671;28;20039;-57
2024/03/01 10:30:11;;;;;;;2.10;1.52;;;;;;;21.17;34.57;99388.66;4455833;28;20047;-57
2024/03/01 10:32:34;;;;;;;;;;;;;;;21.17;34.15;99388.66;4454693;28;20039;-57
2024/03/01 10:34:53;;;;;;;1.98;1.50;;;;;;;21.16;34.06;99399.28;4454901;28;19922;-57
2024/03/01 10:37:26;;;;;;;1.63;1.30;;;;;;;21.15;33.87;99394.78;4456398;28;20027;-55
2024/03/01 10:39:59;;;;;;;1.70;1.50;;;;;;;21.15;34.03;99397.66;4456100;28;20581;-57
2024/03/01 10:42:27;;;;;;;2.33;1.35;;;;;;;21.16;33.76;99398.47;4437545;28;20146;-55
2024/03/01 10:44:47;;;;;;;1.63;1.40;;;;;;;21.16;33.47;99396.44;4455391;28;20039;-57
2024/03/01 10:47:20;;;;;;;1.73;1.42;;;;;;;21.17;33.66;99397.25;4455168;28;20085;-56
2024/03/01 10:49:37;;;;;;;2.83;1.58;;;;;;;21.15;33.54;99397.66;4457404;28;20048;-57
2024/03/01 10:51:53;;;;;;;2.10;1.67;;;;;;;21.15;33.84;99397.66;4456955;28;20012;-57